Time;durP1;ratioP1;P1;durP2;ratioP2;P2;SDS_P1;SDS_P2;PMS_P1;PMS_P2;Temp;Humidity;BMP_temperature;BMP_pressure;BME280_temperature;BME280_humidity;BME280_pressure;Samples;Min_cycle;Max_cycle;Signal;HPM_P1;HPM_P2
2021/12/29 00:00:57;;;;;;;26.60;16.30;;;;;;;0.90;81.80;96688.63;108166;1273;59658;-67
2021/12/29 00:03:26;;;;;;;25.10;14.50;;;;;;;0.91;81.92;96698.19;108501;1269;71210;-68
2021/12/29 00:05:56;;;;;;;26.10;16.40;;;;;;;0.93;81.68;96708.58;108309;1269;68725;-67
2021/12/29 00:08:25;;;;;;;22.90;14.40;;;;;;;0.94;81.67;96707.85;107946;1269;68689;-66
2021/12/29 00:10:56;;;;;;;19.80;14.30;;;;;;;0.95;81.46;96706.95;107983;1269;59784;-66
2021/12/29 00:13:26;;;;;;;23.20;14.10;;;;;;;0.96;81.42;96700.20;108477;1269;59746;-66
2021/12/29 00:15:57;;;;;;;25.30;15.80;;;;;;;0.97;81.55;96697.23;108205;1271;71601;-66
2021/12/29 00:18:28;;;;;;;27.70;17.60;;;;;;;0.97;81.41;96697.73;108329;1269;68732;-66
2021/12/29 00:21:01;;;;;;;24.20;15.50;;;;;;;0.98;81.35;96695.63;108346;1269;69533;-66
2021/12/29 00:23:31;;;;;;;21.50;13.30;;;;;;;0.99;81.47;96692.33;108526;1269;59782;-66
2021/12/29 00:26:20;;;;;;;22.10;15.20;;;;;;;1.01;81.34;96695.85;108153;1271;59649;-66
2021/12/29 00:28:49;;;;;;;27.20;16.40;;;;;;;1.01;81.28;96699.94;108318;1273;70835;-66
2021/12/29 00:31:18;;;;;;;23.70;15.20;;;;;;;1.03;81.23;96704.86;108204;1269;68811;-67
2021/12/29 00:34:06;;;;;;;23.80;14.70;;;;;;;1.02;81.47;96699.92;108187;1271;69329;-67
2021/12/29 00:36:54;;;;;;;32.30;19.30;;;;;;;1.03;81.29;96690.95;108084;1272;59729;-68
2021/12/29 00:39:42;;;;;;;27.40;17.30;;;;;;;1.00;81.48;96696.23;108187;1271;59716;-66
2021/12/29 00:42:34;;;;;;;27.30;16.40;;;;;;;1.00;81.62;96698.45;107872;1275;71857;-66
2021/12/29 00:45:22;;;;;;;27.30;17.20;;;;;;;1.01;81.54;96699.79;108095;1272;68684;-67
2021/12/29 00:47:51;;;;;;;30.90;19.10;;;;;;;1.02;81.51;96703.86;108073;1273;69496;-65
2021/12/29 00:50:20;;;;;;;28.00;17.10;;;;;;;1.00;81.62;96710.98;108055;1273;59777;-65
2021/12/29 00:52:50;;;;;;;19.90;13.70;;;;;;;1.00;81.76;96716.82;108056;1269;59720;-64
2021/12/29 00:55:20;;;;;;;22.70;16.20;;;;;;;1.00;81.83;96716.79;108006;1269;71602;-65
2021/12/29 00:57:51;;;;;;;22.00;15.00;;;;;;;1.02;81.58;96715.70;108064;1269;68708;-64
2021/12/29 01:00:24;;;;;;;23.40;14.70;;;;;;;1.02;81.61;96711.25;108100;1269;67574;-66
2021/12/29 01:02:54;;;;;;;22.70;14.20;;;;;;;1.00;81.64;96707.72;107788;1269;322598;-67
2021/12/29 01:05:23;;;;;;;20.40;13.60;;;;;;;1.01;81.53;96710.43;108392;1271;59792;-64
2021/12/29 01:07:53;;;;;;;21.40;13.10;;;;;;;1.02;81.66;96711.08;108059;1269;71456;-64
2021/12/29 01:10:22;;;;;;;18.80;12.80;;;;;;;1.04;81.63;96713.55;108465;1269;68714;-65
2021/12/29 01:12:58;;;;;;;22.80;16.10;;;;;;;1.06;81.62;96708.67;108380;1269;69538;-66
2021/12/29 01:15:36;;;;;;;18.30;12.20;;;;;;;1.06;81.65;96710.55;108523;1271;59683;-66
2021/12/29 01:18:07;;;;;;;20.80;13.80;;;;;;;1.08;81.71;96707.56;108221;1269;59697;-64
2021/12/29 01:20:36;;;;;;;21.30;13.50;;;;;;;1.09;81.77;96704.77;108237;1272;70622;-64
2021/12/29 01:23:06;;;;;;;17.50;11.70;;;;;;;1.10;81.61;96699.92;108114;1271;68770;-65
2021/12/29 01:25:35;;;;;;;13.20;9.50;;;;;;;1.11;81.44;96700.37;107974;1269;68781;-66
2021/12/29 01:28:04;;;;;;;26.30;15.10;;;;;;;1.13;81.50;96696.52;108059;1269;59689;-64
2021/12/29 01:30:34;;;;;;;16.00;11.50;;;;;;;1.13;81.58;96696.99;108090;1271;59774;-64
2021/12/29 01:33:06;;;;;;;12.60;8.20;;;;;;;1.15;81.39;96693.31;108087;1272;71552;-64
2021/12/29 01:35:38;;;;;;;13.10;7.80;;;;;;;1.16;81.24;96686.73;108033;1272;68469;-65
2021/12/29 01:38:09;;;;;;;14.30;8.90;;;;;;;1.17;81.10;96683.61;108009;1269;69311;-64
2021/12/29 01:40:39;;;;;;;23.10;14.70;;;;;;;1.18;80.95;96676.20;108140;1269;59691;-64
2021/12/29 01:43:10;;;;;;;21.40;14.10;;;;;;;1.18;81.20;96679.96;108265;1269;59759;-64
2021/12/29 01:45:39;;;;;;;21.00;13.40;;;;;;;1.18;81.27;96678.92;108011;1269;70602;-64
2021/12/29 01:48:09;;;;;;;16.20;11.90;;;;;;;1.19;81.23;96684.90;108055;1269;67960;-64
2021/12/29 01:50:40;;;;;;;18.00;11.30;;;;;;;1.19;81.18;96687.64;108062;1269;69421;-64
2021/12/29 01:53:13;;;;;;;14.10;9.40;;;;;;;1.19;81.00;96685.58;108088;1269;59732;-64
2021/12/29 01:55:43;;;;;;;14.30;10.40;;;;;;;1.20;80.97;96682.45;108040;1273;59723;-64
2021/12/29 01:58:13;;;;;;;12.60;9.60;;;;;;;1.21;80.98;96680.16;108047;1269;71588;-64
2021/12/29 02:00:44;;;;;;;15.20;10.80;;;;;;;1.22;80.96;96677.88;108069;1271;67666;-63
2021/12/29 02:03:14;;;;;;;11.80;7.00;;;;;;;1.24;80.90;96668.52;107960;1271;69259;-67
2021/12/29 02:05:44;;;;;;;15.90;10.50;;;;;;;1.25;80.73;96662.63;108061;1271;59718;-65
2021/12/29 02:08:21;;;;;;;20.90;13.60;;;;;;;1.24;80.48;96656.48;108132;1271;59701;-65
2021/12/29 02:10:55;;;;;;;25.80;15.10;;;;;;;1.22;80.79;96651.96;108040;1271;70796;-66
2021/12/29 02:13:25;;;;;;;18.40;10.50;;;;;;;1.21;80.81;96649.94;107926;1272;67756;-67
2021/12/29 02:15:55;;;;;;;24.70;15.70;;;;;;;1.21;80.86;96647.22;107940;1273;68612;-65
2021/12/29 02:18:25;;;;;;;23.60;14.90;;;;;;;1.19;81.17;96647.98;108026;1269;59673;-65
2021/12/29 02:20:55;;;;;;;;;;;;;;;1.17;81.51;96648.23;108065;1269;59717;-64
2021/12/29 02:23:34;;;;;;;29.70;18.60;;;;;;;1.13;81.64;96639.71;108044;1269;71416;-68
2021/12/29 02:26:05;;;;;;;25.80;15.30;;;;;;;1.07;81.95;96640.33;108069;1269;68468;-67
2021/12/29 02:28:39;;;;;;;27.90;17.40;;;;;;;1.06;81.86;96646.20;108043;1272;68499;-66
2021/12/29 02:31:09;;;;;;;26.00;16.10;;;;;;;1.07;81.80;96644.82;108028;1269;59739;-66
2021/12/29 02:33:39;;;;;;;;;;;;;;;1.08;81.73;96650.23;107988;1272;59700;-67
2021/12/29 02:36:10;;;;;;;16.70;10.50;;;;;;;1.11;81.51;96667.09;108068;1269;71542;-66
2021/12/29 02:38:46;;;;;;;16.60;10.20;;;;;;;1.12;81.20;96667.73;108021;1271;68678;-67
2021/12/29 02:41:17;;;;;;;16.90;10.60;;;;;;;1.12;81.07;96661.55;108086;1269;69456;-67
2021/12/29 02:43:49;;;;;;;19.40;11.30;;;;;;;1.13;80.99;96660.64;108022;1271;59787;-68
2021/12/29 02:46:18;;;;;;;13.80;10.10;;;;;;;1.14;80.98;96657.67;108090;1270;59753;-65
2021/12/29 02:48:56;;;;;;;10.10;6.50;;;;;;;1.16;80.99;96655.52;108268;1269;71611;-67
2021/12/29 02:51:29;;;;;;;15.50;11.30;;;;;;;1.18;80.95;96655.73;108104;1270;68605;-67
2021/12/29 02:54:00;;;;;;;14.00;10.10;;;;;;;1.20;81.10;96649.65;108043;1269;69462;-68
2021/12/29 02:56:30;;;;;;;12.90;7.90;;;;;;;1.23;80.94;96644.89;108017;1269;59759;-66
2021/12/29 02:59:01;;;;;;;14.00;7.90;;;;;;;1.24;80.53;96642.41;108030;1271;59698;-66
2021/12/29 03:01:31;;;;;;;12.50;7.80;;;;;;;1.24;80.56;96643.95;108003;1272;69787;-67
2021/12/29 03:04:06;;;;;;;17.60;10.90;;;;;;;1.24;80.68;96638.80;108069;1269;68604;-67
2021/12/29 03:06:36;;;;;;;15.30;10.80;;;;;;;1.25;80.73;96637.41;108082;1269;68451;-67
2021/12/29 03:09:10;;;;;;;16.90;12.30;;;;;;;1.26;80.67;96634.27;108147;1269;59777;-66
2021/12/29 03:11:42;;;;;;;21.70;13.90;;;;;;;1.26;80.50;96633.55;108124;1271;59660;-66
2021/12/29 03:14:15;;;;;;;18.00;12.30;;;;;;;1.27;80.43;96629.74;108041;1272;72572;-66
2021/12/29 03:16:45;;;;;;;12.70;9.40;;;;;;;1.27;80.64;96627.48;108054;1269;68755;-66
2021/12/29 03:19:15;;;;;;;14.10;9.20;;;;;;;1.28;80.68;96623.16;108001;1269;68688;-66
2021/12/29 03:21:46;;;;;;;17.10;12.70;;;;;;;1.28;81.08;96623.17;107957;1273;59729;-66
2021/12/29 03:24:20;;;;;;;17.50;11.20;;;;;;;1.29;81.04;96619.52;108026;1269;59682;-66
2021/12/29 03:26:50;;;;;;;21.30;13.40;;;;;;;1.30;81.24;96615.34;108145;1269;71545;-66
2021/12/29 03:29:20;;;;;;;22.30;15.00;;;;;;;1.29;81.23;96612.98;108146;1271;68672;-65
2021/12/29 03:31:51;;;;;;;19.00;12.00;;;;;;;1.29;81.29;96613.02;108113;1269;68483;-65
2021/12/29 03:34:21;;;;;;;20.50;13.00;;;;;;;1.32;81.19;96614.60;108092;1270;59741;-66
2021/12/29 03:36:51;;;;;;;;;;;;;;;1.32;81.05;96613.89;108037;1271;59762;-66
2021/12/29 03:39:23;;;;;;;26.40;14.50;;;;;;;1.33;81.12;96613.66;108011;1269;71594;-65
2021/12/29 03:41:54;;;;;;;15.60;10.20;;;;;;;1.33;81.41;96610.08;108070;1269;68596;-65
2021/12/29 03:44:24;;;;;;;20.30;12.40;;;;;;;1.32;81.33;96606.85;108043;1269;68467;-65
2021/12/29 03:46:54;;;;;;;20.90;14.10;;;;;;;1.31;81.62;96600.74;108065;1269;59707;-65
2021/12/29 03:49:25;;;;;;;18.50;13.40;;;;;;;1.28;81.74;96592.45;108072;1271;59717;-65
2021/12/29 03:51:55;;;;;;;18.20;10.30;;;;;;;1.27;81.61;96587.50;108051;1269;70750;-65
2021/12/29 03:54:27;;;;;;;20.50;13.10;;;;;;;1.28;81.56;96586.11;108110;1269;67762;-65
2021/12/29 03:57:01;;;;;;;27.50;16.90;;;;;;;1.26;81.59;96583.30;108032;1269;68631;-65
2021/12/29 03:59:31;;;;;;;28.60;17.30;;;;;;;1.23;81.83;96578.42;108102;1270;59649;-65
2021/12/29 04:02:01;;;;;;;26.10;16.20;;;;;;;1.21;82.26;96575.27;108082;1269;59762;-65
2021/12/29 04:04:32;;;;;;;25.40;16.90;;;;;;;1.20;82.20;96571.91;108167;1269;70748;-66
2021/12/29 04:07:02;;;;;;;;;;;;;;;1.17;82.30;96570.33;107993;1271;67834;-65
2021/12/29 04:09:32;;;;;;;33.20;17.90;;;;;;;1.16;82.59;96568.17;108103;1269;68671;-67
2021/12/29 04:12:02;;;;;;;32.40;18.30;;;;;;;1.15;82.56;96570.42;108061;1269;59754;-66
2021/12/29 04:14:32;;;;;;;25.30;14.60;;;;;;;1.12;83.20;96569.54;107974;1272;60648;-66
2021/12/29 04:17:09;;;;;;;20.70;14.30;;;;;;;1.12;82.72;96569.04;107943;1271;71598;-67
2021/12/29 04:20:54;;;;;;;24.60;15.00;;;;;;;1.12;82.84;96568.37;108157;1269;68396;-67
2021/12/29 04:22:35;;;;;;;19.00;12.60;;;;;;;1.12;82.69;96564.90;108124;1271;68526;-68
2021/12/29 04:25:06;;;;;;;18.20;12.40;;;;;;;1.13;82.73;96561.95;108009;1271;59687;-67
2021/12/29 04:27:36;;;;;;;12.40;7.80;;;;;;;1.16;82.44;96563.53;108127;1269;59727;-67
2021/12/29 04:30:06;;;;;;;17.80;10.70;;;;;;;1.19;82.14;96562.52;108086;1269;70992;-67
2021/12/29 04:32:36;;;;;;;13.90;9.70;;;;;;;1.20;81.91;96563.48;108143;1269;67784;-67
2021/12/29 04:35:06;;;;;;;13.60;8.30;;;;;;;1.22;82.02;96561.52;107965;1271;69264;-67
2021/12/29 04:37:36;;;;;;;17.40;10.50;;;;;;;1.24;82.12;96563.28;108066;1269;59690;-66
2021/12/29 04:40:07;;;;;;;16.00;10.10;;;;;;;1.23;82.43;96561.60;108421;1269;59750;-66
2021/12/29 04:42:37;;;;;;;;;;;;;;;1.21;82.41;96560.19;108069;1272;71565;-67
2021/12/29 04:45:07;;;;;;;17.90;11.00;;;;;;;1.17;82.62;96554.52;108493;1269;68634;-67
2021/12/29 04:47:42;;;;;;;17.90;11.00;;;;;;;1.13;82.65;96550.77;108490;1269;67686;-65
2021/12/29 04:53:10;;;;;;;19.20;11.00;;;;;;;1.09;82.81;96548.74;108232;1269;59748;-67
2021/12/29 04:55:45;;;;;;;17.70;10.10;;;;;;;1.10;82.75;96545.80;108507;1269;71591;-66
2021/12/29 04:58:18;;;;;;;14.80;9.40;;;;;;;1.11;82.72;96549.34;108087;1271;67881;-65
2021/12/29 05:00:50;;;;;;;15.80;10.00;;;;;;;1.13;82.39;96546.86;108155;1271;69405;-65
2021/12/29 05:03:21;;;;;;;10.90;8.00;;;;;;;1.15;82.31;96548.64;108048;1269;59754;-66
2021/12/29 05:08:36;;;;;;;14.50;9.90;;;;;;;1.18;82.30;96552.09;108081;1269;71415;-65
2021/12/29 05:11:13;;;;;;;11.80;8.50;;;;;;;1.19;82.13;96555.31;108087;1269;67835;-66
2021/12/29 05:13:46;;;;;;;27.20;16.50;;;;;;;1.21;82.19;96556.59;108043;1271;68650;-66
2021/12/29 05:16:16;;;;;;;29.30;17.90;;;;;;;1.18;82.58;96557.94;108041;1271;59729;-65
2021/12/29 05:18:46;;;;;;;27.30;18.50;;;;;;;1.12;83.10;96553.10;108083;1269;59697;-65
2021/12/29 05:21:16;;;;;;;30.70;19.70;;;;;;;1.01;83.46;96542.08;108121;1270;71685;-65
2021/12/29 05:23:46;;;;;;;33.80;20.90;;;;;;;0.92;83.93;96538.05;108181;1269;68129;-65
2021/12/29 05:26:15;;;;;;;29.70;18.90;;;;;;;0.85;84.32;96534.13;107978;1271;68480;-66
2021/12/29 05:28:45;;;;;;;26.40;16.30;;;;;;;0.79;84.22;96529.79;108059;1269;59766;-65
2021/12/29 05:31:15;;;;;;;28.00;18.30;;;;;;;0.78;84.26;96528.98;108075;1270;59762;-66
2021/12/29 05:33:44;;;;;;;31.10;18.90;;;;;;;0.75;84.47;96533.08;108132;1271;71557;-66
2021/12/29 05:36:14;;;;;;;26.10;16.10;;;;;;;0.71;84.49;96530.70;108292;1267;68734;-66
2021/12/29 05:38:43;;;;;;;19.20;13.30;;;;;;;0.66;84.60;96534.16;108101;1269;69495;-65
2021/12/29 05:41:13;;;;;;;26.20;16.80;;;;;;;0.62;84.51;96534.19;108133;1269;59719;-65
2021/12/29 05:43:42;;;;;;;35.80;21.40;;;;;;;0.56;84.81;96528.30;108082;1269;59617;-65
2021/12/29 05:46:12;;;;;;;30.80;21.00;;;;;;;0.46;85.01;96528.58;108039;1269;70753;-65
2021/12/29 05:48:42;;;;;;;34.00;21.50;;;;;;;0.39;85.38;96529.95;108125;1269;66995;-66
2021/12/29 05:51:12;;;;;;;23.00;15.30;;;;;;;0.34;85.34;96526.40;108146;1269;69513;-65
2021/12/29 05:53:42;;;;;;;33.80;20.90;;;;;;;0.31;85.30;96529.80;108108;1268;59720;-65
2021/12/29 05:56:12;;;;;;;33.00;20.20;;;;;;;0.28;85.51;96533.73;108093;1270;59637;-65
2021/12/29 05:58:41;;;;;;;33.00;19.60;;;;;;;0.25;85.58;96533.14;108040;1269;72268;-66
2021/12/29 06:01:11;;;;;;;26.20;16.00;;;;;;;0.23;85.55;96535.65;107908;1271;68161;-65
2021/12/29 06:03:40;;;;;;;23.60;14.20;;;;;;;0.23;85.95;96539.59;108053;1271;69469;-66
2021/12/29 06:06:09;;;;;;;18.30;10.90;;;;;;;0.23;85.54;96541.48;108117;1270;59751;-65
2021/12/29 06:08:39;;;;;;;15.00;9.30;;;;;;;0.26;85.26;96543.40;108075;1271;60286;-65
2021/12/29 06:11:09;;;;;;;15.10;9.40;;;;;;;0.28;85.30;96549.33;108190;1269;71661;-66
2021/12/29 06:13:38;;;;;;;20.10;12.20;;;;;;;0.32;84.90;96552.77;108027;1269;67772;-66
2021/12/29 06:16:08;;;;;;;16.00;10.00;;;;;;;0.35;84.70;96560.95;107877;1269;69605;-66
2021/12/29 06:18:37;;;;;;;18.50;10.90;;;;;;;0.39;84.94;96560.14;108087;1269;60131;-67
2021/12/29 06:21:06;;;;;;;19.80;11.30;;;;;;;0.43;84.77;96559.09;108286;1269;59649;-66
2021/12/29 06:23:35;;;;;;;18.70;10.30;;;;;;;0.47;84.55;96561.98;108066;1270;72294;-66
2021/12/29 06:26:04;;;;;;;17.40;10.60;;;;;;;0.49;84.51;96564.46;108255;1269;68016;-68
2021/12/29 06:28:33;;;;;;;17.60;11.00;;;;;;;0.54;84.26;96565.80;107999;1269;69351;-67
2021/12/29 06:31:03;;;;;;;17.00;11.00;;;;;;;0.55;84.17;96569.50;108243;1269;59720;-66
2021/12/29 06:33:32;;;;;;;19.50;11.80;;;;;;;0.56;84.14;96573.24;108044;1270;59695;-66
2021/12/29 06:36:02;;;;;;;14.40;9.90;;;;;;;0.57;84.07;96573.02;108067;1269;71773;-67
2021/12/29 06:38:33;;;;;;;17.00;11.30;;;;;;;0.57;84.00;96574.04;108079;1269;67682;-66
2021/12/29 06:41:03;;;;;;;17.60;12.50;;;;;;;0.58;83.91;96571.09;107983;1271;69457;-66
2021/12/29 06:43:32;;;;;;;21.30;13.20;;;;;;;0.59;83.79;96565.39;108101;1269;59768;-67
2021/12/29 06:46:01;;;;;;;16.70;10.10;;;;;;;0.59;83.64;96563.46;108078;1269;60424;-65
2021/12/29 06:48:30;;;;;;;17.20;11.00;;;;;;;0.61;83.53;96563.59;108092;1269;70808;-66
2021/12/29 06:51:00;;;;;;;21.50;14.20;;;;;;;0.61;83.42;96557.41;108089;1269;68708;-66
2021/12/29 06:53:31;;;;;;;18.50;11.30;;;;;;;0.61;83.47;96560.83;108149;1269;68676;-66
2021/12/29 06:56:01;;;;;;;18.10;11.30;;;;;;;0.63;83.44;96568.11;108124;1269;59693;-65
2021/12/29 06:58:30;;;;;;;16.40;10.00;;;;;;;0.68;83.41;96575.91;108132;1269;59636;-65
2021/12/29 07:00:59;;;;;;;16.80;10.60;;;;;;;0.72;83.43;96577.25;108064;1269;71520;-66
2021/12/29 07:03:29;;;;;;;16.50;11.70;;;;;;;0.76;83.36;96577.59;108097;1269;67922;-66
2021/12/29 07:06:00;;;;;;;16.40;10.20;;;;;;;0.81;83.50;96581.98;107925;1271;68640;-65
2021/12/29 07:08:29;;;;;;;22.60;13.00;;;;;;;0.84;83.64;96585.45;108091;1268;59780;-66
2021/12/29 07:10:59;;;;;;;20.40;13.90;;;;;;;0.86;83.84;96587.79;108077;1271;59760;-65
2021/12/29 07:13:28;;;;;;;;;;;;;;;0.92;83.82;96590.73;108112;1269;70778;-66
2021/12/29 07:15:58;;;;;;;16.80;11.50;;;;;;;1.06;83.77;96588.73;108124;1269;69213;-67
2021/12/29 07:18:27;;;;;;;21.10;12.70;;;;;;;1.18;83.20;96584.00;108027;1269;68465;-65
2021/12/29 07:20:56;;;;;;;17.30;10.70;;;;;;;1.28;82.49;96583.66;108083;1269;59694;-65
2021/12/29 07:23:26;;;;;;;21.60;14.20;;;;;;;1.45;82.21;96584.75;108103;1271;59696;-65
2021/12/29 07:25:56;;;;;;;23.50;14.70;;;;;;;1.65;81.34;96584.79;108091;1269;71802;-66
2021/12/29 07:28:25;;;;;;;25.50;14.60;;;;;;;1.81;80.27;96583.27;108094;1269;68485;-67
2021/12/29 07:30:54;;;;;;;21.40;13.70;;;;;;;1.94;80.37;96582.27;108058;1269;68735;-65
2021/12/29 07:33:23;;;;;;;19.60;12.60;;;;;;;2.08;80.95;96587.42;108022;1272;59736;-66
2021/12/29 07:35:52;;;;;;;20.10;13.40;;;;;;;2.23;80.44;96586.93;108095;1269;59791;-67
2021/12/29 07:38:22;;;;;;;27.90;16.30;;;;;;;2.37;79.52;96587.59;108129;1269;72289;-66
2021/12/29 07:40:51;;;;;;;25.80;15.50;;;;;;;2.50;78.85;96589.77;108014;1269;68636;-65
2021/12/29 07:43:21;;;;;;;23.00;14.40;;;;;;;2.69;78.61;96591.19;108090;1269;69539;-65
2021/12/29 07:45:54;;;;;;;23.60;15.20;;;;;;;2.93;78.39;96585.42;108022;1271;59755;-65
2021/12/29 07:48:27;;;;;;;22.10;14.30;;;;;;;3.18;78.27;96578.86;108109;1269;59747;-65
2021/12/29 07:50:57;;;;;;;20.50;12.40;;;;;;;3.41;78.10;96573.23;108170;1271;71725;-67
2021/12/29 07:53:26;;;;;;;;;;;;;;;3.58;77.25;96568.80;108107;1271;67881;-66
2021/12/29 07:55:55;;;;;;;28.00;18.10;;;;;;;3.76;76.53;96570.35;108185;1269;67827;-64
2021/12/29 07:58:25;;;;;;;23.10;15.90;;;;;;;4.00;76.45;96582.50;108077;1269;59735;-68
2021/12/29 08:00:54;;;;;;;31.30;21.00;;;;;;;4.14;75.01;96585.52;108193;1271;59749;-66
2021/12/29 08:03:23;;;;;;;27.20;18.90;;;;;;;4.15;74.56;96592.32;108066;1269;71956;-64
2021/12/29 08:05:53;;;;;;;27.10;18.90;;;;;;;4.16;75.87;96593.31;108082;1271;69251;-65
2021/12/29 08:08:25;;;;;;;28.20;18.40;;;;;;;4.14;74.60;96590.00;108136;1269;69474;-67
2021/12/29 08:10:54;;;;;;;30.60;19.70;;;;;;;4.11;74.91;96584.11;108034;1274;59756;-67
2021/12/29 08:13:26;;;;;;;30.00;20.00;;;;;;;4.09;74.58;96582.33;108340;1269;59741;-68
2021/12/29 08:15:55;;;;;;;32.20;23.30;;;;;;;4.04;74.97;96582.97;108201;1269;71628;-68
2021/12/29 08:18:24;;;;;;;35.00;22.60;;;;;;;4.01;75.50;96581.27;108096;1272;69261;-65
2021/12/29 08:20:53;;;;;;;32.40;21.60;;;;;;;3.97;75.31;96579.42;108042;1271;68005;-66
2021/12/29 08:23:23;;;;;;;27.70;20.40;;;;;;;3.91;74.92;96576.85;107920;1271;59699;-65
2021/12/29 08:25:52;;;;;;;27.20;20.40;;;;;;;3.86;75.21;96571.48;108132;1269;59684;-66
2021/12/29 08:28:22;;;;;;;27.40;17.80;;;;;;;3.78;75.49;96570.70;108140;1269;70317;-66
2021/12/29 08:30:54;;;;;;;28.40;19.90;;;;;;;3.72;75.54;96573.52;108187;1269;68631;-65
2021/12/29 08:33:23;;;;;;;36.40;23.60;;;;;;;3.67;75.67;96574.30;108112;1269;67733;-65
2021/12/29 08:35:52;;;;;;;34.40;22.50;;;;;;;3.63;75.70;96572.65;108059;1271;60240;-65
2021/12/29 08:38:23;;;;;;;30.10;19.90;;;;;;;3.61;75.90;96566.04;108164;1269;59768;-65
2021/12/29 08:40:52;;;;;;;35.80;23.00;;;;;;;3.61;75.91;96560.02;108132;1271;71634;-66
2021/12/29 08:43:22;;;;;;;46.70;31.00;;;;;;;3.59;76.08;96552.02;108126;1269;68688;-68
2021/12/29 08:45:51;;;;;;;34.20;22.50;;;;;;;3.60;76.10;96549.56;108160;1269;70071;-67
2021/12/29 08:48:21;;;;;;;29.70;22.00;;;;;;;3.65;76.20;96549.94;108114;1269;60621;-67
2021/12/29 08:50:50;;;;;;;23.10;15.40;;;;;;;3.70;75.97;96548.77;107972;1271;59663;-66
2021/12/29 08:53:19;;;;;;;27.70;18.60;;;;;;;3.76;75.72;96551.90;108129;1271;71688;-65
2021/12/29 08:55:50;;;;;;;28.50;19.40;;;;;;;3.81;75.82;96557.46;108089;1269;68665;-67
2021/12/29 08:58:19;;;;;;;28.80;19.80;;;;;;;3.88;75.04;96558.77;108291;1269;69950;-66
2021/12/29 09:00:48;;;;;;;28.80;19.40;;;;;;;3.97;74.73;96562.34;108324;1269;59691;-67
2021/12/29 09:03:19;;;;;;;21.70;14.30;;;;;;;4.05;73.69;96566.51;107806;1271;319771;-67
2021/12/29 09:05:49;;;;;;;17.60;12.30;;;;;;;4.14;72.98;96568.73;108110;1269;71264;-66
2021/12/29 09:08:18;;;;;;;13.70;9.10;;;;;;;4.22;72.26;96567.58;108223;1270;68679;-66
2021/12/29 09:10:47;;;;;;;12.70;8.30;;;;;;;4.36;73.71;96568.77;108086;1271;70129;-67
2021/12/29 09:13:18;;;;;;;16.10;11.90;;;;;;;4.55;73.77;96564.14;108256;1271;59711;-66
2021/12/29 09:15:49;;;;;;;16.70;11.70;;;;;;;4.77;72.90;96562.79;108013;1271;59767;-66
2021/12/29 09:18:18;;;;;;;14.80;10.60;;;;;;;5.04;73.11;96557.59;108264;1269;70809;-66
2021/12/29 09:20:48;;;;;;;20.20;13.60;;;;;;;5.37;72.28;96559.28;108120;1271;68740;-65
2021/12/29 09:23:17;;;;;;;15.20;10.60;;;;;;;5.63;70.52;96557.55;108011;1271;70003;-66
2021/12/29 09:25:48;;;;;;;15.60;9.80;;;;;;;5.89;68.35;96559.84;108150;1269;59777;-66
2021/12/29 09:28:18;;;;;;;12.00;8.40;;;;;;;6.08;70.30;96556.09;108375;1269;59659;-66
2021/12/29 09:30:49;;;;;;;25.60;18.20;;;;;;;6.38;68.47;96556.11;108479;1269;70956;-68
2021/12/29 09:33:22;;;;;;;32.90;22.30;;;;;;;6.58;66.26;96557.48;108588;1269;67628;-67
2021/12/29 09:35:57;;;;;;;30.70;17.60;;;;;;;6.72;65.48;96553.73;108294;1269;67876;-67
2021/12/29 09:38:27;;;;;;;30.30;19.50;;;;;;;7.09;65.91;96551.27;108133;1269;59740;-68
2021/12/29 09:40:58;;;;;;;24.40;15.30;;;;;;;7.79;65.05;96553.38;108181;1269;59721;-66
2021/12/29 09:43:27;;;;;;;;;;;;;;;8.60;65.69;96565.79;108213;1269;72137;-67
2021/12/29 09:45:56;;;;;;;23.80;16.40;;;;;;;9.07;64.39;96566.92;108361;1271;68923;-69
2021/12/29 09:48:25;;;;;;;24.10;16.60;;;;;;;9.07;58.55;96560.64;108297;1269;69566;-68
2021/12/29 09:50:54;;;;;;;19.50;13.90;;;;;;;8.58;58.29;96553.59;108268;1269;59761;-68
2021/12/29 09:53:24;;;;;;;21.80;15.30;;;;;;;8.31;60.44;96551.02;108241;1269;59767;-69
2021/12/29 09:55:53;;;;;;;23.50;15.50;;;;;;;8.07;60.21;96544.63;108177;1271;70922;-69
2021/12/29 09:58:22;;;;;;;25.70;15.80;;;;;;;7.80;60.87;96531.58;108298;1271;68648;-67
2021/12/29 10:00:56;;;;;;;21.90;15.30;;;;;;;7.56;60.80;96524.88;108411;1270;69103;-68
2021/12/29 10:03:28;;;;;;;22.50;16.50;;;;;;;7.44;61.54;96518.41;108257;1271;59739;-67
2021/12/29 10:06:00;;;;;;;25.80;16.80;;;;;;;7.38;62.08;96517.55;108278;1269;59753;-68
2021/12/29 10:08:31;;;;;;;19.40;13.50;;;;;;;7.39;61.79;96521.84;108326;1271;71685;-67
2021/12/29 10:11:12;;;;;;;17.30;12.30;;;;;;;7.50;62.49;96524.82;108132;1271;67711;-66
2021/12/29 10:13:46;;;;;;;18.20;12.50;;;;;;;7.70;63.92;96530.27;108142;1270;68659;-66
2021/12/29 10:16:20;;;;;;;15.90;10.70;;;;;;;7.86;63.20;96532.92;108363;1270;59767;-67
2021/12/29 10:19:01;;;;;;;15.30;10.60;;;;;;;7.88;60.83;96530.11;108266;1269;59753;-68
2021/12/29 10:21:30;;;;;;;23.30;15.10;;;;;;;7.79;60.91;96523.04;108236;1269;70628;-69
2021/12/29 10:24:01;;;;;;;20.30;15.20;;;;;;;7.65;62.17;96521.98;108264;1269;69015;-69
2021/12/29 10:26:50;;;;;;;23.50;15.50;;;;;;;7.51;60.77;96514.88;108220;1269;68808;-67
2021/12/29 10:29:21;;;;;;;22.60;16.10;;;;;;;7.38;61.94;96507.85;108211;1269;59757;-68
2021/12/29 10:32:02;;;;;;;15.20;9.90;;;;;;;7.34;62.60;96510.45;108308;1269;59706;-65
2021/12/29 10:34:32;;;;;;;13.70;9.70;;;;;;;7.38;63.79;96511.90;108305;1269;71271;-67
2021/12/29 10:37:08;;;;;;;;;;;;;;;7.40;63.77;96513.63;108285;1271;67844;-69
2021/12/29 10:39:43;;;;;;;13.50;9.60;;;;;;;7.41;63.77;96510.30;108253;1269;68821;-69
2021/12/29 10:42:21;;;;;;;14.00;9.00;;;;;;;7.41;63.51;96508.19;108204;1269;59745;-68
2021/12/29 10:44:59;;;;;;;17.40;12.50;;;;;;;7.44;63.48;96508.31;107946;1271;59724;-68
2021/12/29 10:47:35;;;;;;;13.90;9.10;;;;;;;7.34;61.89;96502.63;107980;1271;71553;-68
2021/12/29 10:50:13;;;;;;;16.10;11.00;;;;;;;7.28;62.88;96501.02;108144;1271;68642;-68
2021/12/29 10:52:54;;;;;;;13.80;8.20;;;;;;;7.22;62.24;96497.34;108030;1272;69474;-68
2021/12/29 10:55:34;;;;;;;17.30;10.90;;;;;;;7.14;61.84;96495.39;108080;1271;59822;-68
2021/12/29 10:58:10;;;;;;;15.50;11.10;;;;;;;7.14;63.19;96490.04;108078;1271;59745;-67
2021/12/29 11:00:48;;;;;;;17.80;11.70;;;;;;;7.16;62.29;96489.58;108100;1271;71636;-68
2021/12/29 11:03:20;;;;;;;16.10;11.50;;;;;;;7.12;62.30;96485.22;108098;1270;68459;-67
2021/12/29 11:05:58;;;;;;;17.80;10.80;;;;;;;7.06;62.27;96483.55;108017;1271;68783;-66
2021/12/29 11:08:31;;;;;;;15.00;10.60;;;;;;;6.87;61.37;96482.31;108017;1271;59791;-69
2021/12/29 11:11:06;;;;;;;11.70;8.20;;;;;;;6.76;62.13;96482.27;108164;1274;60216;-68
2021/12/29 11:13:35;;;;;;;10.20;7.80;;;;;;;6.80;62.60;96478.71;108087;1271;71760;-69
2021/12/29 11:16:05;;;;;;;14.50;10.50;;;;;;;6.93;63.74;96483.27;108067;1271;68810;-66
2021/12/29 11:18:49;;;;;;;11.90;8.60;;;;;;;7.08;62.86;96482.54;108070;1270;68938;-69
2021/12/29 11:21:35;;;;;;;10.50;7.10;;;;;;;7.17;62.77;96479.15;108110;1271;59749;-68
2021/12/29 11:24:23;;;;;;;15.00;10.30;;;;;;;7.29;61.95;96476.13;108112;1271;59748;-67
2021/12/29 11:26:52;;;;;;;11.80;7.70;;;;;;;7.44;60.27;96478.68;108173;1271;71632;-68
2021/12/29 11:29:22;;;;;;;12.90;8.50;;;;;;;7.79;61.71;96476.67;108142;1271;68710;-69
2021/12/29 11:32:03;;;;;;;11.10;7.60;;;;;;;8.24;60.52;96481.70;107979;1271;69736;-68
2021/12/29 11:34:32;;;;;;;10.70;8.20;;;;;;;8.56;60.56;96473.50;108153;1271;59703;-69
2021/12/29 11:37:07;;;;;;;16.20;11.20;;;;;;;8.79;58.59;96465.29;108113;1271;59770;-66
2021/12/29 11:39:41;;;;;;;14.20;9.60;;;;;;;8.92;57.89;96462.45;108122;1271;71616;-69
2021/12/29 11:42:11;;;;;;;13.00;9.50;;;;;;;9.00;58.79;96467.23;108134;1271;67827;-69
2021/12/29 11:44:40;;;;;;;;;;;;;;;9.02;58.51;96466.20;108236;1269;68812;-70
2021/12/29 11:47:15;;;;;;;12.60;8.40;;;;;;;9.05;59.08;96462.98;108218;1269;59738;-67